createdAt,value
2022-09-03T00:02:06.951Z,16.10
2022-09-03T00:05:01.182Z,15.96
2022-09-03T00:08:00.061Z,15.90
2022-09-03T00:10:49.073Z,15.73
2022-09-03T00:13:22.657Z,15.83
2022-09-03T00:15:50.284Z,15.69
2022-09-03T00:18:23.293Z,15.82
2022-09-03T00:20:58.521Z,15.92
2022-09-03T00:23:28.425Z,15.90
2022-09-03T00:26:19.143Z,15.81
2022-09-03T00:28:54.583Z,15.67
2022-09-03T00:31:30.534Z,15.48
2022-09-03T00:34:02.131Z,15.70
2022-09-03T00:36:37.865Z,15.71
2022-09-03T00:39:04.336Z,15.73
2022-09-03T00:41:38.602Z,15.65
2022-09-03T00:44:20.218Z,15.40
2022-09-03T00:47:02.085Z,15.43
2022-09-03T00:49:35.089Z,15.43
2022-09-03T00:52:01.376Z,15.41
2022-09-03T00:55:09.406Z,15.39
2022-09-03T00:58:08.719Z,15.28
2022-09-03T01:00:39.653Z,15.27
2022-09-03T01:03:41.406Z,15.22
2022-09-03T01:06:19.403Z,15.14
2022-09-03T01:08:54.418Z,15.00
2022-09-03T01:11:40.990Z,14.96
2022-09-03T01:14:29.179Z,14.87
2022-09-03T01:17:28.544Z,14.96
2022-09-03T01:20:30.036Z,14.89
2022-09-03T01:23:27.752Z,14.83
2022-09-03T01:26:34.370Z,14.67
2022-09-03T01:29:17.423Z,14.89
2022-09-03T01:32:31.518Z,14.88
2022-09-03T01:35:16.531Z,14.79
2022-09-03T01:37:57.546Z,14.67
2022-09-03T01:40:45.857Z,14.61
2022-09-03T01:43:34.185Z,14.60
2022-09-03T01:46:09.675Z,14.49
2022-09-03T01:49:17.211Z,14.44
2022-09-03T01:51:43.759Z,14.43
2022-09-03T01:54:39.555Z,14.28
2022-09-03T01:57:05.851Z,14.27
2022-09-03T01:59:50.555Z,14.28
2022-09-03T02:02:28.432Z,14.10
2022-09-03T02:05:00.749Z,14.05
2022-09-03T02:07:36.643Z,13.84
2022-09-03T02:10:07.218Z,13.75
2022-09-03T02:12:35.822Z,13.68
2022-09-03T02:15:06.928Z,13.66
2022-09-03T02:17:34.823Z,13.57
2022-09-03T02:20:06.609Z,13.57
2022-09-03T02:22:34.179Z,13.50
2022-09-03T02:25:00.953Z,13.53
2022-09-03T02:27:27.817Z,13.53
2022-09-03T02:29:54.187Z,13.67
2022-09-03T02:32:20.546Z,13.67
2022-09-03T02:34:46.914Z,13.60
2022-09-03T02:37:14.953Z,13.51
2022-09-03T02:39:41.886Z,13.54
2022-09-03T02:42:10.527Z,13.45
2022-09-03T02:44:41.427Z,13.35
2022-09-03T02:47:08.504Z,13.27
2022-09-03T02:49:35.007Z,13.18
2022-09-03T02:52:08.074Z,12.96
2022-09-03T02:54:34.786Z,12.79
2022-09-03T02:57:02.475Z,12.52
2022-09-03T02:59:28.819Z,12.42
2022-09-03T03:01:55.497Z,12.35
2022-09-03T03:04:22.259Z,12.24
2022-09-03T03:06:48.751Z,12.18
2022-09-03T03:09:15.092Z,12.16
2022-09-03T03:11:41.452Z,12.09
2022-09-03T03:14:07.963Z,12.00
2022-09-03T03:16:34.741Z,11.95
2022-09-03T03:19:01.191Z,11.89
2022-09-03T03:21:27.956Z,11.83
2022-09-03T03:23:54.862Z,11.81
2022-09-03T03:26:21.908Z,11.75
2022-09-03T03:28:49.223Z,11.69
2022-09-03T03:31:17.960Z,11.59
2022-09-03T03:33:44.727Z,11.56
2022-09-03T03:36:14.225Z,11.52
2022-09-03T03:38:42.803Z,11.44
2022-09-03T03:41:20.578Z,11.37
2022-09-03T03:43:46.919Z,11.34
2022-09-03T03:46:13.575Z,11.26
2022-09-03T03:48:39.953Z,11.45
2022-09-03T03:51:08.619Z,11.50
2022-09-03T03:53:36.831Z,11.47
2022-09-03T03:56:05.833Z,11.43
2022-09-03T03:58:33.498Z,11.37
2022-09-03T04:01:14.490Z,11.18
2022-09-03T04:03:42.103Z,11.24
2022-09-03T04:06:09.662Z,11.48
2022-09-03T04:08:39.078Z,11.41
2022-09-03T04:11:07.349Z,11.19
2022-09-03T04:13:36.369Z,11.14
2022-09-03T04:16:05.439Z,10.96
2022-09-03T04:18:33.083Z,10.97
2022-09-03T04:21:04.850Z,10.94
2022-09-03T04:23:32.566Z,10.99
2022-09-03T04:25:59.300Z,11.05
2022-09-03T04:28:25.687Z,11.09
2022-09-03T04:30:52.070Z,10.93
2022-09-03T04:33:18.776Z,10.76
2022-09-03T04:35:45.414Z,10.80
2022-09-03T04:38:11.921Z,10.77
2022-09-03T04:40:38.359Z,10.78
2022-09-03T04:43:04.799Z,10.80
2022-09-03T04:45:31.209Z,10.73
2022-09-03T04:47:59.163Z,10.79
2022-09-03T04:50:25.866Z,10.79
2022-09-03T04:52:52.215Z,10.71
2022-09-03T04:55:18.546Z,10.66
2022-09-03T04:57:44.887Z,10.69
2022-09-03T05:00:11.691Z,10.63
2022-09-03T05:02:38.076Z,10.70
2022-09-03T05:05:04.886Z,10.70
2022-09-03T05:07:31.271Z,10.69
2022-09-03T05:09:57.627Z,10.71
2022-09-03T05:12:23.970Z,10.81
2022-09-03T05:14:50.308Z,10.90
2022-09-03T05:17:16.650Z,10.92
2022-09-03T05:19:42.978Z,10.83
2022-09-03T05:22:09.314Z,10.93
2022-09-03T05:24:35.639Z,11.10
2022-09-03T05:27:01.988Z,11.12
2022-09-03T05:29:28.314Z,11.22
2022-09-03T05:31:54.829Z,11.25
2022-09-03T05:34:21.242Z,11.28
2022-09-03T05:36:47.577Z,11.38
2022-09-03T05:39:13.897Z,11.50
2022-09-03T05:41:40.234Z,11.62
2022-09-03T05:44:06.566Z,11.67
2022-09-03T05:46:33.815Z,11.81
2022-09-03T05:49:02.164Z,11.88
2022-09-03T05:51:29.880Z,11.94
2022-09-03T05:53:56.320Z,12.10
2022-09-03T05:56:24.686Z,12.24
2022-09-03T05:58:53.933Z,12.20
2022-09-03T06:01:22.725Z,12.38
2022-09-03T06:03:57.458Z,13.25
2022-09-03T06:06:25.004Z,14.68
2022-09-03T06:08:56.358Z,16.13
2022-09-03T06:11:22.982Z,16.13
2022-09-03T06:13:49.313Z,18.12
2022-09-03T06:16:15.792Z,18.68
2022-09-03T06:18:42.187Z,19.43
2022-09-03T06:21:08.508Z,19.86
2022-09-03T06:23:36.216Z,20.11
2022-09-03T06:26:11.198Z,19.79
2022-09-03T06:28:39.887Z,19.47
2022-09-03T06:31:08.865Z,18.68
2022-09-03T06:33:36.978Z,18.14
2022-09-03T06:36:08.780Z,17.39
2022-09-03T06:38:36.720Z,17.21
2022-09-03T06:41:06.808Z,17.22
2022-09-03T06:43:36.041Z,16.82
2022-09-03T06:46:14.362Z,16.84
2022-09-03T06:48:41.600Z,17.02
2022-09-03T06:51:11.148Z,16.96
2022-09-03T06:53:39.943Z,17.04
2022-09-03T06:56:09.129Z,17.24
2022-09-03T06:58:40.572Z,17.29
2022-09-03T07:01:13.494Z,17.35
2022-09-03T07:03:42.953Z,17.46
2022-09-03T07:06:17.194Z,17.49
2022-09-03T07:08:44.162Z,17.80
2022-09-03T07:11:15.567Z,17.99
2022-09-03T07:13:44.627Z,18.24
2022-09-03T07:16:13.766Z,18.39
2022-09-03T07:18:40.250Z,18.55
2022-09-03T07:21:08.938Z,18.44
2022-09-03T07:23:37.542Z,18.62
2022-09-03T07:26:09.917Z,18.75
2022-09-03T07:28:38.427Z,18.71
2022-09-03T07:31:10.638Z,18.57
2022-09-03T07:33:37.764Z,18.35
2022-09-03T07:36:06.368Z,18.60
2022-09-03T07:38:34.400Z,18.81
2022-09-03T07:41:02.543Z,19.11
2022-09-03T07:43:33.000Z,19.36
2022-09-03T07:45:59.626Z,19.58
2022-09-03T07:48:25.960Z,19.60
2022-09-03T07:50:52.644Z,19.71
2022-09-03T07:53:19.175Z,19.93
2022-09-03T07:55:45.634Z,20.05
2022-09-03T07:58:12.634Z,20.03
2022-09-03T08:00:39.216Z,20.25
2022-09-03T08:03:05.903Z,20.24
2022-09-03T08:05:33.241Z,20.49
2022-09-03T08:08:00.428Z,20.51
2022-09-03T08:10:27.521Z,20.66
2022-09-03T08:12:54.085Z,20.41
2022-09-03T08:15:20.423Z,20.40
2022-09-03T08:17:46.771Z,20.73
2022-09-03T08:20:13.117Z,20.38
2022-09-03T08:22:39.446Z,20.45
2022-09-03T08:25:06.202Z,20.61
2022-09-03T08:27:36.113Z,20.74
2022-09-03T08:30:02.446Z,20.44
2022-09-03T08:32:28.787Z,20.63
2022-09-03T08:34:55.126Z,20.57
2022-09-03T08:37:21.539Z,20.09
2022-09-03T08:39:47.887Z,20.02
2022-09-03T08:42:25.014Z,20.37
2022-09-03T08:44:54.610Z,20.38
2022-09-03T08:47:28.887Z,20.63
2022-09-03T08:50:04.049Z,20.87
2022-09-03T08:52:37.639Z,20.94
2022-09-03T08:55:19.259Z,20.59
2022-09-03T08:57:52.884Z,20.93
2022-09-03T09:00:19.405Z,20.93
2022-09-03T09:03:24.045Z,20.94
2022-09-03T09:05:59.902Z,20.96
2022-09-03T09:08:31.906Z,21.00
2022-09-03T09:11:16.668Z,21.11
2022-09-03T09:13:54.850Z,21.26
2022-09-03T09:16:44.358Z,21.18
2022-09-03T09:19:51.376Z,21.15
2022-09-03T09:22:32.944Z,21.31
2022-09-03T09:25:03.734Z,21.21
2022-09-03T09:27:30.165Z,21.29
2022-09-03T09:30:01.436Z,21.38
2022-09-03T09:32:27.952Z,21.03
2022-09-03T09:34:54.298Z,21.33
2022-09-03T09:37:20.937Z,21.75
2022-09-03T09:39:59.355Z,21.92
2022-09-03T09:42:26.408Z,22.12
2022-09-03T09:44:53.243Z,22.26
2022-09-03T09:47:28.577Z,22.46
2022-09-03T09:49:57.213Z,22.49
2022-09-03T09:52:26.000Z,22.02
2022-09-03T09:54:54.353Z,22.36
2022-09-03T09:57:25.470Z,22.16
2022-09-03T10:00:16.176Z,22.40
2022-09-03T10:02:51.255Z,22.43
2022-09-03T10:05:26.968Z,22.69
2022-09-03T10:07:58.764Z,22.66
2022-09-03T10:10:26.114Z,22.28
2022-09-03T10:13:06.887Z,22.04
2022-09-03T10:16:10.707Z,22.08
2022-09-03T10:18:49.689Z,22.41
2022-09-03T10:21:24.834Z,22.43
2022-09-03T10:24:02.638Z,22.41
2022-09-03T10:26:32.446Z,22.48
2022-09-03T10:29:05.349Z,22.75
2022-09-03T10:31:52.475Z,22.73
2022-09-03T10:34:27.375Z,22.83
2022-09-03T10:37:25.893Z,23.06
2022-09-03T10:40:29.488Z,23.19
2022-09-03T10:43:04.938Z,22.91
2022-09-03T10:46:00.277Z,23.00
2022-09-03T10:48:26.545Z,22.77
2022-09-03T10:50:58.036Z,22.83
2022-09-03T10:53:57.543Z,23.06
2022-09-03T10:56:30.047Z,23.10
2022-09-03T10:59:31.812Z,23.26
2022-09-03T11:02:25.197Z,23.50
2022-09-03T11:05:09.603Z,23.57
2022-09-03T11:07:52.955Z,23.29
2022-09-03T11:10:32.111Z,23.34
2022-09-03T11:12:58.383Z,23.25
2022-09-03T11:15:44.999Z,23.35
2022-09-03T11:18:33.013Z,23.45
2022-09-03T11:21:01.731Z,23.74
2022-09-03T11:23:30.502Z,24.06
2022-09-03T11:26:02.579Z,24.15
2022-09-03T11:28:54.147Z,24.53
2022-09-03T11:31:26.823Z,24.49
2022-09-03T11:34:06.949Z,24.50
2022-09-03T11:36:38.674Z,24.59
2022-09-03T11:39:38.661Z,24.47
2022-09-03T11:42:30.660Z,23.97
2022-09-03T11:45:12.534Z,24.20
2022-09-03T11:47:42.271Z,23.52
2022-09-03T11:50:22.567Z,24.17
2022-09-03T11:52:55.112Z,24.44
2022-09-03T11:55:47.415Z,24.45
2022-09-03T11:58:32.043Z,24.68
2022-09-03T12:01:00.931Z,24.61
2022-09-03T12:03:40.665Z,24.47
2022-09-03T12:06:17.919Z,24.40
2022-09-03T12:09:01.253Z,23.95
2022-09-03T12:11:47.998Z,23.76
2022-09-03T12:14:30.133Z,23.72
2022-09-03T12:17:09.192Z,24.00
2022-09-03T12:19:54.162Z,24.39
2022-09-03T12:22:21.647Z,24.29
2022-09-03T12:24:48.526Z,24.70
2022-09-03T12:27:26.638Z,25.05
2022-09-03T12:30:04.237Z,25.23
2022-09-03T12:32:35.847Z,25.31
2022-09-03T12:38:18.362Z,25.16
2022-09-03T12:43:39.695Z,24.93
2022-09-03T12:46:14.785Z,25.73
2022-09-03T12:49:30.051Z,26.09
2022-09-03T12:51:53.486Z,25.20
2022-09-03T12:54:22.794Z,25.76
2022-09-03T12:56:56.358Z,25.55
2022-09-03T12:59:26.138Z,26.44
2022-09-03T13:01:56.815Z,26.89
2022-09-03T13:04:35.825Z,26.43
2022-09-03T13:07:04.363Z,26.16
2022-09-03T13:09:33.839Z,26.25
2022-09-03T13:12:00.234Z,26.40
2022-09-03T13:14:27.488Z,26.53
2022-09-03T13:17:08.837Z,26.26
2022-09-03T13:19:56.517Z,26.49
2022-09-03T13:23:08.059Z,25.66
2022-09-03T13:25:48.231Z,25.97
2022-09-03T13:28:44.915Z,26.56
2022-09-03T13:31:35.152Z,26.34
2022-09-03T13:34:37.219Z,25.62
2022-09-03T13:37:12.726Z,25.58
2022-09-03T13:39:47.405Z,25.76
2022-09-03T13:42:24.554Z,25.81
2022-09-03T13:44:58.816Z,25.86
2022-09-03T13:47:40.923Z,26.13
2022-09-03T13:50:11.655Z,26.18
2022-09-03T13:53:04.817Z,25.98
2022-09-03T13:55:31.102Z,25.67
2022-09-03T13:58:02.860Z,25.56
2022-09-03T14:00:37.030Z,25.26
2022-09-03T14:03:16.723Z,25.36
2022-09-03T14:06:19.703Z,25.62
2022-09-03T14:09:02.438Z,25.22
2022-09-03T14:11:56.756Z,25.25
2022-09-03T14:14:54.681Z,25.05
2022-09-03T14:17:46.996Z,24.62
2022-09-03T14:20:25.547Z,24.84
2022-09-03T14:22:55.034Z,24.91
2022-09-03T14:25:24.175Z,24.81
2022-09-03T14:27:50.941Z,24.28
2022-09-03T14:30:25.046Z,24.50
2022-09-03T14:33:15.611Z,24.62
2022-09-03T14:35:56.615Z,24.52
2022-09-03T14:38:32.025Z,24.57
2022-09-03T14:41:18.363Z,24.84
2022-09-03T14:44:15.477Z,24.69
2022-09-03T14:47:06.797Z,24.56
2022-09-03T14:49:51.631Z,24.68
2022-09-03T14:52:37.158Z,24.85
2022-09-03T14:55:12.903Z,24.68
2022-09-03T14:58:12.334Z,24.76
2022-09-03T15:01:06.017Z,24.90
2022-09-03T15:03:51.058Z,24.79
2022-09-03T15:06:30.834Z,24.38
2022-09-03T15:09:19.512Z,24.31
2022-09-03T15:12:00.242Z,24.44
2022-09-03T15:14:53.730Z,24.03
2022-09-03T15:17:39.919Z,24.19
2022-09-03T15:20:32.472Z,23.97
2022-09-03T15:23:28.154Z,24.19
2022-09-03T15:26:21.545Z,24.52
2022-09-03T15:29:18.154Z,24.29
2022-09-03T15:31:55.788Z,24.26
2022-09-03T15:34:22.133Z,24.29
2022-09-03T15:36:54.050Z,24.21
2022-09-03T15:39:28.393Z,24.21
2022-09-03T15:42:07.491Z,24.14
2022-09-03T15:44:45.538Z,24.21
2022-09-03T15:47:27.983Z,24.41
2022-09-03T15:50:27.117Z,24.38
2022-09-03T15:53:04.641Z,24.39
2022-09-03T15:55:38.394Z,24.31
2022-09-03T15:58:30.868Z,24.45
2022-09-03T16:01:01.172Z,24.77
2022-09-03T16:03:33.741Z,25.04
2022-09-03T16:06:06.265Z,25.18
2022-09-03T16:08:52.510Z,25.15
2022-09-03T16:11:40.103Z,24.94
2022-09-03T16:14:25.910Z,24.29
2022-09-03T16:17:04.885Z,24.25
2022-09-03T16:19:45.599Z,24.19
2022-09-03T16:22:21.971Z,24.30
2022-09-03T16:25:00.758Z,24.26
2022-09-03T16:27:36.516Z,24.24
2022-09-03T16:30:22.177Z,24.13
2022-09-03T16:33:32.105Z,23.91
2022-09-03T16:36:10.751Z,23.99
2022-09-03T16:39:06.994Z,23.96
2022-09-03T16:41:51.817Z,23.86
2022-09-03T16:44:36.180Z,23.80
2022-09-03T16:47:12.478Z,23.91
2022-09-03T16:50:14.689Z,23.81
2022-09-03T16:53:15.159Z,23.75
2022-09-03T16:56:16.061Z,23.65
2022-09-03T16:59:02.438Z,23.61
2022-09-03T17:01:53.557Z,23.35
2022-09-03T17:04:49.496Z,23.20
2022-09-03T17:07:53.653Z,22.95
2022-09-03T17:10:45.907Z,22.93
2022-09-03T17:13:36.452Z,22.70
2022-09-03T17:16:34.006Z,22.56
2022-09-03T17:19:14.158Z,22.60
2022-09-03T17:22:03.658Z,22.60
2022-09-03T17:24:36.669Z,22.48
2022-09-03T17:27:16.903Z,22.25
2022-09-03T17:30:10.959Z,22.19
2022-09-03T17:33:01.542Z,22.17
2022-09-03T17:35:38.281Z,22.06
2022-09-03T17:38:40.806Z,22.01
2022-09-03T17:41:25.535Z,22.07
2022-09-03T17:44:16.482Z,21.81
2022-09-03T17:46:48.873Z,21.67
2022-09-03T17:49:29.903Z,21.57
2022-09-03T17:52:07.502Z,21.53
2022-09-03T17:54:48.612Z,21.38
2022-09-03T17:57:26.350Z,21.32
2022-09-03T18:00:05.888Z,21.21
2022-09-03T18:02:39.522Z,21.07
2022-09-03T18:05:26.348Z,21.13
2022-09-03T18:08:13.900Z,20.89
2022-09-03T18:10:52.363Z,20.86
2022-09-03T18:13:42.983Z,20.85
2022-09-03T18:16:18.187Z,20.82
2022-09-03T18:18:50.748Z,20.87
2022-09-03T18:21:31.569Z,20.83
2022-09-03T18:24:20.963Z,20.84
2022-09-03T18:26:59.290Z,20.96
2022-09-03T18:29:35.576Z,20.78
2022-09-03T18:32:02.091Z,20.85
2022-09-03T18:34:32.216Z,20.87
2022-09-03T18:36:59.394Z,20.77
2022-09-03T18:39:28.067Z,20.66
2022-09-03T18:42:15.953Z,20.58
2022-09-03T18:45:20.373Z,20.30
2022-09-03T18:48:04.665Z,20.35
2022-09-03T18:51:10.787Z,20.41
2022-09-03T18:54:12.869Z,20.07
2022-09-03T18:56:47.885Z,20.04
2022-09-03T18:59:14.148Z,19.99
2022-09-03T19:01:42.388Z,19.97
2022-09-03T19:04:23.843Z,19.95
2022-09-03T19:06:53.157Z,19.90
2022-09-03T19:09:32.209Z,19.57
2022-09-03T19:12:23.714Z,19.47
2022-09-03T19:15:01.662Z,19.53
2022-09-03T19:18:00.614Z,19.51
2022-09-03T19:20:31.212Z,19.50
2022-09-03T19:22:57.632Z,19.60
2022-09-03T19:25:25.987Z,19.61
2022-09-03T19:28:21.532Z,19.35
2022-09-03T19:30:57.978Z,19.36
2022-09-03T19:33:39.699Z,19.20
2022-09-03T19:36:24.843Z,19.13
2022-09-03T19:38:54.157Z,18.80
2022-09-03T19:41:38.386Z,18.90
2022-09-03T19:44:26.843Z,18.85
2022-09-03T19:47:03.218Z,19.00
2022-09-03T19:49:51.534Z,18.91
2022-09-03T19:52:44.663Z,18.81
2022-09-03T19:55:16.255Z,18.67
2022-09-03T19:57:45.761Z,18.64
2022-09-03T20:00:13.373Z,18.52
2022-09-03T20:02:47.671Z,18.38
2022-09-03T20:05:19.894Z,18.52
2022-09-03T20:07:54.144Z,18.64
2022-09-03T20:10:21.015Z,18.54
2022-09-03T20:12:55.643Z,18.43
2022-09-03T20:15:29.549Z,18.29
2022-09-03T20:18:12.126Z,18.20
2022-09-03T20:20:48.504Z,18.05
2022-09-03T20:23:25.086Z,17.97
2022-09-03T20:26:10.461Z,17.80
2022-09-03T20:28:55.915Z,17.77
2022-09-03T20:31:25.316Z,17.48
2022-09-03T20:34:22.783Z,17.46
2022-09-03T20:37:18.257Z,17.35
2022-09-03T20:39:59.770Z,17.08
2022-09-03T20:42:46.838Z,17.08
2022-09-03T20:45:24.058Z,17.16
2022-09-03T20:48:13.726Z,17.09
2022-09-03T20:50:42.889Z,17.04
2022-09-03T20:53:21.325Z,16.92
2022-09-03T20:55:52.888Z,16.89
2022-09-03T20:58:44.831Z,16.76
2022-09-03T21:01:53.113Z,16.66
2022-09-03T21:04:22.374Z,16.63
2022-09-03T21:07:34.540Z,16.57
2022-09-03T21:10:12.270Z,16.60
2022-09-03T21:12:55.015Z,16.59
2022-09-03T21:15:41.125Z,16.50
2022-09-03T21:18:23.954Z,16.40
2022-09-03T21:21:01.636Z,16.35
2022-09-03T21:23:33.581Z,16.33
2022-09-03T21:26:14.984Z,16.24
2022-09-03T21:28:46.438Z,16.16
2022-09-03T21:31:21.859Z,16.15
2022-09-03T21:33:55.702Z,16.14
2022-09-03T21:36:24.797Z,15.95
2022-09-03T21:39:05.604Z,16.03
2022-09-03T21:42:13.293Z,15.96
2022-09-03T21:44:39.569Z,16.02
2022-09-03T21:47:17.484Z,15.95
2022-09-03T21:49:58.213Z,16.13
2022-09-03T21:52:34.894Z,16.26
2022-09-03T21:55:03.659Z,16.30
2022-09-03T21:57:53.976Z,16.25
2022-09-03T22:00:26.812Z,16.26
2022-09-03T22:02:53.253Z,16.13
2022-09-03T22:05:19.625Z,16.09
2022-09-03T22:07:50.781Z,15.99
2022-09-03T22:10:51.117Z,15.74
2022-09-03T22:13:40.875Z,15.56
2022-09-03T22:16:20.434Z,15.51
2022-09-03T22:18:46.787Z,15.43
2022-09-03T22:21:26.649Z,15.32
2022-09-03T22:23:56.051Z,15.26
2022-09-03T22:26:37.542Z,15.17
2022-09-03T22:29:29.776Z,15.08
2022-09-03T22:32:15.481Z,15.08
2022-09-03T22:34:47.688Z,15.05
2022-09-03T22:37:41.875Z,15.36
2022-09-03T22:40:31.036Z,15.44
2022-09-03T22:43:17.627Z,15.42
2022-09-03T22:46:04.086Z,15.25
2022-09-03T22:48:36.478Z,15.23
2022-09-03T22:51:03.635Z,15.22
2022-09-03T22:53:41.991Z,15.12
2022-09-03T22:56:15.250Z,15.30
2022-09-03T22:58:52.416Z,15.25
2022-09-03T23:01:30.915Z,15.13
2022-09-03T23:04:10.373Z,15.04
2022-09-03T23:06:47.763Z,14.95
2022-09-03T23:09:19.321Z,14.95
2022-09-03T23:11:59.827Z,14.85
2022-09-03T23:14:33.487Z,14.89
2022-09-03T23:17:18.099Z,14.89
2022-09-03T23:19:51.701Z,14.81
2022-09-03T23:22:23.744Z,14.78
2022-09-03T23:24:56.552Z,14.69
2022-09-03T23:27:34.862Z,14.59
2022-09-03T23:30:02.285Z,14.60
2022-09-03T23:32:41.103Z,14.55
2022-09-03T23:35:13.418Z,14.38
2022-09-03T23:38:01.306Z,14.31
2022-09-03T23:40:30.792Z,14.37
2022-09-03T23:43:20.182Z,14.28
2022-09-03T23:45:59.503Z,14.30
2022-09-03T23:48:38.953Z,14.25
2022-09-03T23:51:20.280Z,14.22
2022-09-03T23:54:08.175Z,14.43
2022-09-03T23:56:52.339Z,14.37
2022-09-03T23:59:57.031Z,14.30
